createdAt,value
2018-08-04T00:02:07.838Z,73.14
2018-08-04T00:04:37.332Z,73.55
2018-08-04T00:07:07.348Z,73.93
2018-08-04T00:09:36.545Z,73.82
2018-08-04T00:17:21.913Z,73.19
2018-08-04T03:13:06.753Z,79.17
2018-08-04T03:15:36.322Z,79.66
2018-08-04T03:18:07.342Z,79.86
2018-08-04T03:20:38.145Z,79.27
2018-08-04T03:23:07.693Z,79.09
2018-08-04T03:25:37.703Z,78.57
2018-08-04T03:28:07.079Z,77.89
2018-08-04T03:30:36.672Z,78.75
2018-08-04T03:33:06.503Z,78.80
2018-08-04T03:35:37.374Z,79.11
2018-08-04T03:38:07.284Z,79.72
2018-08-04T03:40:36.669Z,79.00
2018-08-04T03:43:05.907Z,79.62
2018-08-04T03:45:34.981Z,78.63
2018-08-04T03:48:04.122Z,79.47
2018-08-04T03:50:34.402Z,79.78
2018-08-04T03:53:03.760Z,80.39
2018-08-04T03:55:32.466Z,79.54
2018-08-04T03:58:01.204Z,79.46
2018-08-04T04:00:31.569Z,79.69
2018-08-04T04:03:00.343Z,79.20
2018-08-04T04:05:29.051Z,80.12
2018-08-04T04:07:58.334Z,79.42
2018-08-04T04:10:27.527Z,81.84
2018-08-04T04:12:56.315Z,82.80
2018-08-04T04:15:25.002Z,82.99
2018-08-04T04:17:54.607Z,82.16
2018-08-04T04:20:23.296Z,81.73
2018-08-04T04:22:52.850Z,80.87
2018-08-04T04:25:22.056Z,80.63
2018-08-04T04:27:51.280Z,80.88
2018-08-04T04:30:20.806Z,80.31
2018-08-04T04:32:49.581Z,81.45
2018-08-04T04:35:18.684Z,81.65
2018-08-04T04:37:48.095Z,81.45
2018-08-04T04:40:17.486Z,82.33
2018-08-04T04:42:46.789Z,83.04
2018-08-04T04:45:15.677Z,82.75
2018-08-04T04:47:44.445Z,82.17
2018-08-04T04:50:13.774Z,82.33
2018-08-04T04:52:42.962Z,82.41
2018-08-04T04:55:11.653Z,81.55
2018-08-04T04:57:40.319Z,82.06
2018-08-04T05:00:09.064Z,81.12
2018-08-04T05:02:38.188Z,80.80
2018-08-04T05:05:08.621Z,80.24
2018-08-04T05:07:37.366Z,79.76
2018-08-04T05:10:07.270Z,79.24
2018-08-04T05:12:39.117Z,81.01
2018-08-04T05:15:08.494Z,79.38
2018-08-04T05:17:37.179Z,77.99
2018-08-04T05:20:06.873Z,77.48
2018-08-04T05:22:37.322Z,75.94
2018-08-04T05:25:07.196Z,73.10
2018-08-04T05:27:37.138Z,73.09
2018-08-04T05:30:06.946Z,73.64
2018-08-04T05:32:36.731Z,71.67
2018-08-04T05:35:05.461Z,69.46
2018-08-04T05:37:34.324Z,69.02
2018-08-04T05:40:03.076Z,67.37
2018-08-04T05:42:31.705Z,68.93
2018-08-04T05:45:00.497Z,70.39
2018-08-04T05:47:30.300Z,69.16
2018-08-04T05:49:58.988Z,68.85
2018-08-04T05:52:27.637Z,71.23
2018-08-04T05:54:56.645Z,69.06
2018-08-04T05:57:25.997Z,65.99
2018-08-04T05:59:55.029Z,63.51
2018-08-04T06:02:24.151Z,61.00
2018-08-04T06:04:53.705Z,60.75
2018-08-04T06:07:22.407Z,60.89
2018-08-04T06:09:52.208Z,59.95
2018-08-04T06:12:23.306Z,58.86
2018-08-04T06:14:52.072Z,57.45
2018-08-04T06:17:21.857Z,56.75
2018-08-04T06:19:50.585Z,56.31
2018-08-04T06:22:20.080Z,54.90
2018-08-04T06:24:49.322Z,54.08
2018-08-04T06:27:18.084Z,54.03
2018-08-04T06:29:46.699Z,54.31
2018-08-04T06:32:15.328Z,52.91
2018-08-04T06:34:44.040Z,52.88
2018-08-04T06:37:13.543Z,50.41
2018-08-04T06:39:43.628Z,50.35
2018-08-04T06:42:13.444Z,51.13
2018-08-04T06:44:42.132Z,49.34
2018-08-04T06:47:10.740Z,49.27
2018-08-04T06:49:39.985Z,49.49
2018-08-04T06:52:08.873Z,49.95
2018-08-04T06:54:37.601Z,48.64
2018-08-04T06:57:06.249Z,47.53
2018-08-04T06:59:34.877Z,46.19
2018-08-04T07:02:03.496Z,47.02
2018-08-04T07:04:34.245Z,50.39
2018-08-04T07:07:03.242Z,52.92
2018-08-04T07:09:33.255Z,54.08
2018-08-04T07:12:02.042Z,53.89
2018-08-04T07:14:32.147Z,53.93
2018-08-04T07:17:00.778Z,53.03
2018-08-04T07:19:29.483Z,52.99
2018-08-04T07:21:58.089Z,48.53
2018-08-04T07:24:26.717Z,49.01
2018-08-04T07:26:56.827Z,46.44
2018-08-04T07:29:25.535Z,45.76
2018-08-04T07:31:54.257Z,46.64
2018-08-04T07:34:23.175Z,44.51
2018-08-04T07:36:52.961Z,44.99
2018-08-04T07:39:21.609Z,46.18
2018-08-04T07:41:50.236Z,44.41
2018-08-04T07:44:19.424Z,43.72
2018-08-04T07:46:48.593Z,42.62
2018-08-04T07:49:18.219Z,43.26
2018-08-04T07:51:47.049Z,43.81
2018-08-04T07:54:15.697Z,43.71
2018-08-04T07:56:44.229Z,42.78
2018-08-04T07:59:12.885Z,41.46
2018-08-04T08:01:41.466Z,41.34
2018-08-04T08:04:10.203Z,38.33
2018-08-04T08:06:38.919Z,40.14
2018-08-04T08:09:09.252Z,39.68
2018-08-04T08:11:38.476Z,40.00
2018-08-04T08:14:07.843Z,41.72
2018-08-04T08:16:38.025Z,41.25
2018-08-04T08:19:08.677Z,41.83
2018-08-04T08:21:37.952Z,42.45
2018-08-04T08:24:07.818Z,42.26
2018-08-04T08:26:36.924Z,38.80
2018-08-04T08:29:06.495Z,40.15
2018-08-04T08:31:36.624Z,40.45
2018-08-04T08:35:13.658Z,38.28
2018-08-04T08:37:43.410Z,37.37
2018-08-04T08:40:13.126Z,37.74
2018-08-04T08:42:43.540Z,36.51
2018-08-04T08:45:13.321Z,36.67
2018-08-04T08:47:45.398Z,36.93
2018-08-04T08:50:16.364Z,36.39
2018-08-04T08:52:46.056Z,37.11
2018-08-04T08:55:16.570Z,37.79
2018-08-04T08:57:45.215Z,36.67
2018-08-04T09:00:14.846Z,35.97
2018-08-04T09:03:40.371Z,36.52
2018-08-04T09:06:10.368Z,34.47
2018-08-04T09:08:40.984Z,35.28
2018-08-04T09:11:12.712Z,34.97
2018-08-04T09:13:44.067Z,34.84
2018-08-04T09:16:12.975Z,34.60
2018-08-04T09:18:42.990Z,33.34
2018-08-04T09:21:12.909Z,33.61
2018-08-04T09:23:41.796Z,32.25
2018-08-04T09:26:11.610Z,32.40
2018-08-04T09:28:40.452Z,30.20
2018-08-04T09:31:10.393Z,30.81
2018-08-04T09:33:43.954Z,30.88
2018-08-04T09:36:13.069Z,31.19
2018-08-04T09:38:43.409Z,31.61
2018-08-04T09:41:12.177Z,30.46
2018-08-04T09:43:40.982Z,31.24
2018-08-04T09:46:09.771Z,31.06
2018-08-04T09:48:39.941Z,31.86
2018-08-04T09:51:08.864Z,30.77
2018-08-04T09:53:38.822Z,30.83
2018-08-04T09:56:09.371Z,28.98
2018-08-04T09:58:39.926Z,28.40
2018-08-04T10:01:14.303Z,27.45
2018-08-04T10:03:43.319Z,26.95
2018-08-04T10:06:14.148Z,27.47
2018-08-04T10:08:44.161Z,28.44
2018-08-04T10:11:13.244Z,27.23
2018-08-04T10:13:42.831Z,26.91
2018-08-04T10:16:13.329Z,24.25
2018-08-04T10:18:52.953Z,25.98
2018-08-04T10:21:21.659Z,27.63
2018-08-04T10:23:50.862Z,26.81
2018-08-04T10:26:19.698Z,26.91
2018-08-04T10:28:49.416Z,25.69
2018-08-04T10:31:18.126Z,23.91
2018-08-04T10:33:48.084Z,24.30
2018-08-04T10:36:18.354Z,26.06
2018-08-04T10:38:47.883Z,26.66
2018-08-04T10:41:16.568Z,28.67
2018-08-04T10:43:45.249Z,30.19
2018-08-04T10:46:14.389Z,29.81
2018-08-04T10:48:44.170Z,29.82
2018-08-04T10:51:14.054Z,30.16
2018-08-04T10:53:43.669Z,30.42
2018-08-04T10:56:13.383Z,30.88
2018-08-04T10:58:41.857Z,31.47
2018-08-04T11:01:10.440Z,33.34
2018-08-04T11:03:39.986Z,32.51
2018-08-04T11:06:10.568Z,33.33
2018-08-04T11:08:40.365Z,32.06
2018-08-04T11:11:09.991Z,31.09
2018-08-04T11:13:40.115Z,30.66
2018-08-04T11:16:09.164Z,29.83
2018-08-04T11:18:39.957Z,29.41
2018-08-04T11:21:09.756Z,28.81
2018-08-04T11:23:39.037Z,29.06
2018-08-04T11:26:08.748Z,28.14
2018-08-04T11:28:38.930Z,27.79
2018-08-04T11:31:08.211Z,28.28
2018-08-04T11:33:36.976Z,28.11
2018-08-04T11:36:06.073Z,27.42
2018-08-04T11:38:36.618Z,28.04
2018-08-04T11:41:06.092Z,29.04
2018-08-04T11:43:37.788Z,28.44
2018-08-04T11:46:06.639Z,28.95
2018-08-04T11:48:35.773Z,29.21
2018-08-04T11:51:04.815Z,30.25
2018-08-04T11:53:34.739Z,30.53
2018-08-04T11:56:03.374Z,31.02
2018-08-04T11:58:32.698Z,30.27
2018-08-04T12:01:02.242Z,31.28
2018-08-04T12:03:31.591Z,31.23
2018-08-04T12:06:01.605Z,29.10
2018-08-04T12:08:31.771Z,29.03
2018-08-04T12:11:03.520Z,28.92
2018-08-04T12:13:33.478Z,27.71
2018-08-04T12:16:03.397Z,27.59
2018-08-04T12:18:32.323Z,27.29
2018-08-04T12:21:03.137Z,28.61
2018-08-04T12:23:33.610Z,30.06
2018-08-04T12:26:03.416Z,28.90
2018-08-04T12:28:34.030Z,30.16
2018-08-04T12:31:03.247Z,27.75
2018-08-04T12:33:33.383Z,29.33
2018-08-04T12:36:02.629Z,28.97
2018-08-04T12:38:33.428Z,29.13
2018-08-04T12:41:03.682Z,28.16
2018-08-04T12:43:32.231Z,29.05
2018-08-04T12:46:03.312Z,27.39
2018-08-04T12:48:32.148Z,25.63
2018-08-04T12:51:02.133Z,25.41
2018-08-04T12:53:32.115Z,27.19
2018-08-04T12:56:01.949Z,26.44
2018-08-04T12:58:30.693Z,26.09
2018-08-04T13:01:01.667Z,26.60
2018-08-04T13:03:33.004Z,25.61
2018-08-04T13:06:02.854Z,25.33
2018-08-04T13:08:33.912Z,24.98
2018-08-04T13:11:02.539Z,25.05
2018-08-04T13:13:31.869Z,25.90
2018-08-04T13:16:02.559Z,26.59
2018-08-04T13:18:31.335Z,26.32
2018-08-04T13:21:01.595Z,26.35
2018-08-04T13:23:30.382Z,26.04
2018-08-04T13:25:59.621Z,25.62
2018-08-04T13:28:28.339Z,25.37
2018-08-04T13:30:58.205Z,27.55
2018-08-04T13:33:27.720Z,27.86
2018-08-04T13:35:58.392Z,26.80
2018-08-04T13:38:27.702Z,26.92
2018-08-04T13:40:56.276Z,25.62
2018-08-04T13:43:24.986Z,25.55
2018-08-04T13:45:55.356Z,24.88
2018-08-04T13:48:25.028Z,24.81
2018-08-04T13:50:54.685Z,24.22
2018-08-04T13:53:27.222Z,23.42
2018-08-04T13:55:58.481Z,24.85
2018-08-04T13:58:33.980Z,24.46
2018-08-04T14:01:03.591Z,25.79
2018-08-04T14:03:34.551Z,26.76
2018-08-04T14:06:03.599Z,25.61
2018-08-04T14:09:06.032Z,26.87
2018-08-04T14:11:36.157Z,26.62
2018-08-04T14:14:06.763Z,25.29
2018-08-04T14:16:36.233Z,25.74
2018-08-04T14:19:06.999Z,24.92
2018-08-04T14:21:36.957Z,25.29
2018-08-04T14:24:07.340Z,27.43
2018-08-04T14:26:37.151Z,29.15
2018-08-04T14:29:07.977Z,28.07
2018-08-04T14:31:37.779Z,28.89
2018-08-04T14:34:10.207Z,28.79
2018-08-04T14:36:44.080Z,28.64
2018-08-04T14:39:14.673Z,28.59
2018-08-04T14:41:43.816Z,27.93
2018-08-04T14:44:12.721Z,28.17
2018-08-04T14:46:44.172Z,28.25
2018-08-04T14:49:14.149Z,28.06
2018-08-04T14:51:43.625Z,28.93
2018-08-04T14:54:14.756Z,28.41
2018-08-04T14:56:49.027Z,28.09
2018-08-04T14:59:32.143Z,28.65
2018-08-04T15:02:07.814Z,28.92
2018-08-04T15:04:39.607Z,29.52
2018-08-04T15:07:10.690Z,29.57
2018-08-04T15:12:16.892Z,29.92
2018-08-04T15:14:49.564Z,29.28
2018-08-04T15:17:28.585Z,28.93
2018-08-04T15:20:07.261Z,28.22
2018-08-04T15:22:39.023Z,30.00
2018-08-04T15:25:10.393Z,29.77
2018-08-04T15:27:47.689Z,30.27
2018-08-04T15:30:19.243Z,29.94
2018-08-04T15:32:51.785Z,29.56
2018-08-04T15:35:27.581Z,29.58
2018-08-04T15:37:59.434Z,30.16
2018-08-04T15:40:30.177Z,30.46
2018-08-04T15:42:59.371Z,30.07
2018-08-04T15:45:30.496Z,29.75
2018-08-04T15:48:05.962Z,30.12
2018-08-04T15:50:37.710Z,29.87
2018-08-04T15:53:12.412Z,29.62
2018-08-04T15:55:48.058Z,29.32
2018-08-04T15:58:26.562Z,28.97
2018-08-04T16:00:56.705Z,29.20
2018-08-04T16:03:26.655Z,30.28
2018-08-04T16:06:01.715Z,30.03
2018-08-04T16:08:46.226Z,30.72
2018-08-04T16:11:50.910Z,31.67
2018-08-04T16:14:23.057Z,30.94
2018-08-04T16:16:59.437Z,30.40
2018-08-04T16:19:46.210Z,29.61
2018-08-04T16:22:23.857Z,29.15
2018-08-04T16:24:59.818Z,29.60
2018-08-04T16:27:42.598Z,29.75
2018-08-04T16:30:12.510Z,29.09
2018-08-04T16:32:44.396Z,28.87
2018-08-04T16:35:19.968Z,30.14
2018-08-04T16:37:54.125Z,29.78
2018-08-04T16:40:23.969Z,29.50
2018-08-04T16:43:00.112Z,29.58
2018-08-04T16:45:34.390Z,30.10
2018-08-04T16:48:03.916Z,28.96
2018-08-04T16:50:33.727Z,29.73
2018-08-04T16:53:04.358Z,30.10
2018-08-04T16:55:37.856Z,30.21
2018-08-04T16:58:07.371Z,30.26
2018-08-04T17:00:36.150Z,30.52
2018-08-04T17:03:08.216Z,31.26
2018-08-04T17:05:56.562Z,29.65
2018-08-04T17:18:03.318Z,31.04
2018-08-04T18:54:15.876Z,33.11
2018-08-04T18:56:48.324Z,32.77
2018-08-04T18:59:26.115Z,33.15
2018-08-04T19:02:02.672Z,33.14
2018-08-04T19:04:34.548Z,33.38
2018-08-04T19:07:20.091Z,33.64
2018-08-04T19:11:06.386Z,33.57
2018-08-04T19:16:27.515Z,33.08
2018-08-04T19:24:09.015Z,33.77
2018-08-04T19:26:59.666Z,34.08
2018-08-04T19:29:40.407Z,33.20
2018-08-04T19:35:36.278Z,33.64
2018-08-04T19:38:20.360Z,34.23
2018-08-04T19:50:53.577Z,34.04
2018-08-04T19:57:52.726Z,34.76
2018-08-04T20:00:53.777Z,34.20
2018-08-04T20:03:43.170Z,35.14
2018-08-04T20:22:14.108Z,36.37
2018-08-04T20:37:41.226Z,36.70
2018-08-04T20:40:11.645Z,36.31
2018-08-04T20:42:44.214Z,36.06
2018-08-04T20:45:34.866Z,35.39
2018-08-04T20:48:20.173Z,35.57
2018-08-04T20:50:51.747Z,35.98
2018-08-04T20:53:22.821Z,36.66
2018-08-04T20:55:53.238Z,36.16
2018-08-04T21:04:00.186Z,36.28
2018-08-04T21:07:03.992Z,36.73
2018-08-04T21:10:02.051Z,36.81
2018-08-04T21:12:33.672Z,37.64
2018-08-04T21:15:06.541Z,37.36
2018-08-04T21:17:38.988Z,37.66
2018-08-04T21:20:52.863Z,37.61
2018-08-04T21:33:41.520Z,39.33
2018-08-04T21:38:56.748Z,39.70
